sensor_id;sensor_type;location;lat;lon;timestamp;temperature;humidity
14893;DHT22;7538;53.626;9.906;2022-12-08T00:01:15;3.00;99.90
14893;DHT22;7538;53.626;9.906;2022-12-08T00:03:43;3.00;99.90
14893;DHT22;7538;53.626;9.906;2022-12-08T00:06:23;3.00;99.90
14893;DHT22;7538;53.626;9.906;2022-12-08T00:09:14;3.00;99.90
14893;DHT22;7538;53.626;9.906;2022-12-08T00:11:58;3.00;99.90
14893;DHT22;7538;53.626;9.906;2022-12-08T00:14:28;3.00;99.90
14893;DHT22;7538;53.626;9.906;2022-12-08T00:16:56;3.00;99.90
14893;DHT22;7538;53.626;9.906;2022-12-08T00:19:23;3.00;99.90
14893;DHT22;7538;53.626;9.906;2022-12-08T00:21:50;3.00;99.90
14893;DHT22;7538;53.626;9.906;2022-12-08T00:24:17;3.00;99.90
14893;DHT22;7538;53.626;9.906;2022-12-08T00:26:44;3.10;99.90
14893;DHT22;7538;53.626;9.906;2022-12-08T00:29:11;3.10;99.90
14893;DHT22;7538;53.626;9.906;2022-12-08T00:31:39;3.10;99.90
14893;DHT22;7538;53.626;9.906;2022-12-08T00:34:07;3.10;99.90
14893;DHT22;7538;53.626;9.906;2022-12-08T00:36:34;3.20;99.90
14893;DHT22;7538;53.626;9.906;2022-12-08T00:39:01;3.20;99.90
14893;DHT22;7538;53.626;9.906;2022-12-08T00:41:28;3.20;99.90
14893;DHT22;7538;53.626;9.906;2022-12-08T00:44:14;3.20;99.90
14893;DHT22;7538;53.626;9.906;2022-12-08T00:46:42;3.30;99.90
14893;DHT22;7538;53.626;9.906;2022-12-08T00:49:09;3.30;99.90
14893;DHT22;7538;53.626;9.906;2022-12-08T00:51:36;3.30;99.90
14893;DHT22;7538;53.626;9.906;2022-12-08T00:54:04;3.30;99.90
14893;DHT22;7538;53.626;9.906;2022-12-08T00:56:31;3.30;99.90
14893;DHT22;7538;53.626;9.906;2022-12-08T00:58:58;3.40;99.90
14893;DHT22;7538;53.626;9.906;2022-12-08T01:01:25;3.40;99.90
14893;DHT22;7538;53.626;9.906;2022-12-08T01:03:53;3.40;99.90
14893;DHT22;7538;53.626;9.906;2022-12-08T01:06:20;3.40;99.90
14893;DHT22;7538;53.626;9.906;2022-12-08T01:08:47;3.40;99.90
14893;DHT22;7538;53.626;9.906;2022-12-08T01:11:16;3.40;99.90
14893;DHT22;7538;53.626;9.906;2022-12-08T01:13:43;3.40;99.90
14893;DHT22;7538;53.626;9.906;2022-12-08T01:16:18;3.50;99.90
14893;DHT22;7538;53.626;9.906;2022-12-08T01:18:44;3.50;99.90
14893;DHT22;7538;53.626;9.906;2022-12-08T01:21:13;3.50;99.90
14893;DHT22;7538;53.626;9.906;2022-12-08T01:23:40;3.50;99.90
14893;DHT22;7538;53.626;9.906;2022-12-08T01:26:08;3.50;99.90
14893;DHT22;7538;53.626;9.906;2022-12-08T01:28:36;3.50;99.90
14893;DHT22;7538;53.626;9.906;2022-12-08T01:31:03;3.60;99.90
14893;DHT22;7538;53.626;9.906;2022-12-08T01:33:31;3.60;99.90
14893;DHT22;7538;53.626;9.906;2022-12-08T01:36:02;3.60;99.90
14893;DHT22;7538;53.626;9.906;2022-12-08T01:38:31;3.60;99.90
14893;DHT22;7538;53.626;9.906;2022-12-08T01:40:58;3.70;99.90
14893;DHT22;7538;53.626;9.906;2022-12-08T01:46:07;3.70;99.90
14893;DHT22;7538;53.626;9.906;2022-12-08T01:48:34;3.70;99.90
14893;DHT22;7538;53.626;9.906;2022-12-08T01:51:01;0.60;99.90
14893;DHT22;7538;53.626;9.906;2022-12-08T01:53:31;3.80;99.90
14893;DHT22;7538;53.626;9.906;2022-12-08T01:56:03;3.80;99.90
14893;DHT22;7538;53.626;9.906;2022-12-08T01:58:36;3.80;99.90
14893;DHT22;7538;53.626;9.906;2022-12-08T02:01:03;3.80;99.90
14893;DHT22;7538;53.626;9.906;2022-12-08T02:03:34;3.80;99.90
14893;DHT22;7538;53.626;9.906;2022-12-08T02:06:04;3.80;99.90
14893;DHT22;7538;53.626;9.906;2022-12-08T02:08:32;3.80;99.90
14893;DHT22;7538;53.626;9.906;2022-12-08T02:11:00;3.80;99.90
14893;DHT22;7538;53.626;9.906;2022-12-08T02:13:27;3.80;99.90
14893;DHT22;7538;53.626;9.906;2022-12-08T02:16:01;3.80;99.90
14893;DHT22;7538;53.626;9.906;2022-12-08T02:18:44;3.70;99.90
14893;DHT22;7538;53.626;9.906;2022-12-08T02:21:17;3.60;99.90
14893;DHT22;7538;53.626;9.906;2022-12-08T02:23:54;3.60;99.90
14893;DHT22;7538;53.626;9.906;2022-12-08T02:26:56;3.60;99.90
14893;DHT22;7538;53.626;9.906;2022-12-08T02:29:50;3.60;99.90
14893;DHT22;7538;53.626;9.906;2022-12-08T02:35:45;3.50;99.90
14893;DHT22;7538;53.626;9.906;2022-12-08T02:38:19;3.50;99.90
14893;DHT22;7538;53.626;9.906;2022-12-08T02:40:52;3.50;99.90
14893;DHT22;7538;53.626;9.906;2022-12-08T02:43:28;3.50;99.90
14893;DHT22;7538;53.626;9.906;2022-12-08T02:45:59;3.50;99.90
14893;DHT22;7538;53.626;9.906;2022-12-08T02:48:27;3.50;99.90
14893;DHT22;7538;53.626;9.906;2022-12-08T02:50:55;3.50;99.90
14893;DHT22;7538;53.626;9.906;2022-12-08T02:53:22;3.60;99.90
14893;DHT22;7538;53.626;9.906;2022-12-08T02:55:56;3.60;99.90
14893;DHT22;7538;53.626;9.906;2022-12-08T02:58:47;3.60;99.90
14893;DHT22;7538;53.626;9.906;2022-12-08T03:01:32;3.60;99.90
14893;DHT22;7538;53.626;9.906;2022-12-08T03:04:05;3.60;99.90
14893;DHT22;7538;53.626;9.906;2022-12-08T03:06:41;3.60;99.90
14893;DHT22;7538;53.626;9.906;2022-12-08T03:09:16;3.70;99.90
14893;DHT22;7538;53.626;9.906;2022-12-08T03:11:48;3.70;99.90
14893;DHT22;7538;53.626;9.906;2022-12-08T03:14:17;3.70;99.90
14893;DHT22;7538;53.626;9.906;2022-12-08T03:16:47;3.70;99.90
14893;DHT22;7538;53.626;9.906;2022-12-08T03:19:17;3.80;99.90
14893;DHT22;7538;53.626;9.906;2022-12-08T03:21:47;3.80;99.90
14893;DHT22;7538;53.626;9.906;2022-12-08T03:24:16;3.80;99.90
14893;DHT22;7538;53.626;9.906;2022-12-08T03:26:46;3.80;99.90
14893;DHT22;7538;53.626;9.906;2022-12-08T03:29:14;3.80;99.90
14893;DHT22;7538;53.626;9.906;2022-12-08T03:31:45;3.80;99.90
14893;DHT22;7538;53.626;9.906;2022-12-08T03:34:16;6.50;99.90
14893;DHT22;7538;53.626;9.906;2022-12-08T03:36:43;3.80;99.90
14893;DHT22;7538;53.626;9.906;2022-12-08T03:39:12;3.80;99.90
14893;DHT22;7538;53.626;9.906;2022-12-08T03:41:39;3.90;99.90
14893;DHT22;7538;53.626;9.906;2022-12-08T03:44:06;3.80;99.90
14893;DHT22;7538;53.626;9.906;2022-12-08T03:46:33;3.90;99.90
14893;DHT22;7538;53.626;9.906;2022-12-08T03:48:59;3.90;99.90
14893;DHT22;7538;53.626;9.906;2022-12-08T03:51:26;3.90;99.90
14893;DHT22;7538;53.626;9.906;2022-12-08T03:53:53;3.90;99.90
14893;DHT22;7538;53.626;9.906;2022-12-08T03:56:23;3.90;99.90
14893;DHT22;7538;53.626;9.906;2022-12-08T03:58:51;3.90;99.90
14893;DHT22;7538;53.626;9.906;2022-12-08T04:01:18;3.90;99.90
14893;DHT22;7538;53.626;9.906;2022-12-08T04:03:45;3.90;99.90
14893;DHT22;7538;53.626;9.906;2022-12-08T04:06:12;3.90;99.90
14893;DHT22;7538;53.626;9.906;2022-12-08T04:08:39;3.90;99.90
14893;DHT22;7538;53.626;9.906;2022-12-08T04:11:06;3.90;99.90
14893;DHT22;7538;53.626;9.906;2022-12-08T04:13:35;3.90;99.90
14893;DHT22;7538;53.626;9.906;2022-12-08T04:16:03;3.90;99.90
14893;DHT22;7538;53.626;9.906;2022-12-08T04:18:30;3.90;99.90
14893;DHT22;7538;53.626;9.906;2022-12-08T04:20:57;3.80;99.90
14893;DHT22;7538;53.626;9.906;2022-12-08T04:23:24;3.80;99.90
14893;DHT22;7538;53.626;9.906;2022-12-08T04:25:51;3.70;99.90
14893;DHT22;7538;53.626;9.906;2022-12-08T04:28:18;3.70;99.90
14893;DHT22;7538;53.626;9.906;2022-12-08T04:30:48;3.70;99.90
14893;DHT22;7538;53.626;9.906;2022-12-08T04:33:15;3.70;99.90
14893;DHT22;7538;53.626;9.906;2022-12-08T04:35:42;3.60;99.90
14893;DHT22;7538;53.626;9.906;2022-12-08T04:38:09;3.50;99.90
14893;DHT22;7538;53.626;9.906;2022-12-08T04:40:36;3.70;99.90
14893;DHT22;7538;53.626;9.906;2022-12-08T04:43:02;3.60;99.90
14893;DHT22;7538;53.626;9.906;2022-12-08T04:45:29;3.50;99.90
14893;DHT22;7538;53.626;9.906;2022-12-08T04:47:58;3.60;99.90
14893;DHT22;7538;53.626;9.906;2022-12-08T04:50:26;3.60;99.90
14893;DHT22;7538;53.626;9.906;2022-12-08T04:52:53;3.60;99.90
14893;DHT22;7538;53.626;9.906;2022-12-08T04:55:20;3.60;99.90
14893;DHT22;7538;53.626;9.906;2022-12-08T04:57:46;3.60;99.90
14893;DHT22;7538;53.626;9.906;2022-12-08T05:00:14;3.60;99.90
14893;DHT22;7538;53.626;9.906;2022-12-08T05:02:41;3.60;99.90
14893;DHT22;7538;53.626;9.906;2022-12-08T05:05:09;3.70;99.90
14893;DHT22;7538;53.626;9.906;2022-12-08T05:07:36;3.70;99.90
14893;DHT22;7538;53.626;9.906;2022-12-08T05:10:04;3.70;99.90
14893;DHT22;7538;53.626;9.906;2022-12-08T05:12:31;3.70;99.90
14893;DHT22;7538;53.626;9.906;2022-12-08T05:14:58;3.70;99.90
14893;DHT22;7538;53.626;9.906;2022-12-08T05:17:25;3.70;99.90
14893;DHT22;7538;53.626;9.906;2022-12-08T05:19:52;3.70;99.90
14893;DHT22;7538;53.626;9.906;2022-12-08T05:22:20;3.70;99.90
14893;DHT22;7538;53.626;9.906;2022-12-08T05:24:47;3.70;99.90
14893;DHT22;7538;53.626;9.906;2022-12-08T05:27:14;3.80;99.90
14893;DHT22;7538;53.626;9.906;2022-12-08T05:29:41;3.70;99.90
14893;DHT22;7538;53.626;9.906;2022-12-08T05:32:08;3.60;99.90
14893;DHT22;7538;53.626;9.906;2022-12-08T05:34:35;3.70;99.90
14893;DHT22;7538;53.626;9.906;2022-12-08T05:37:01;3.70;99.90
14893;DHT22;7538;53.626;9.906;2022-12-08T05:39:30;3.70;99.90
14893;DHT22;7538;53.626;9.906;2022-12-08T05:41:57;3.70;99.90
14893;DHT22;7538;53.626;9.906;2022-12-08T05:44:24;3.70;99.90
14893;DHT22;7538;53.626;9.906;2022-12-08T05:46:51;3.80;99.90
14893;DHT22;7538;53.626;9.906;2022-12-08T05:49:18;3.80;99.90
14893;DHT22;7538;53.626;9.906;2022-12-08T05:51:45;3.80;99.90
14893;DHT22;7538;53.626;9.906;2022-12-08T05:54:12;3.80;99.90
14893;DHT22;7538;53.626;9.906;2022-12-08T05:56:40;3.80;99.90
14893;DHT22;7538;53.626;9.906;2022-12-08T05:59:07;3.80;99.90
14893;DHT22;7538;53.626;9.906;2022-12-08T06:01:34;3.80;99.90
14893;DHT22;7538;53.626;9.906;2022-12-08T06:04:02;3.90;99.90
14893;DHT22;7538;53.626;9.906;2022-12-08T06:06:30;3.90;99.90
14893;DHT22;7538;53.626;9.906;2022-12-08T06:08:57;3.90;99.90
14893;DHT22;7538;53.626;9.906;2022-12-08T06:11:25;3.90;99.90
14893;DHT22;7538;53.626;9.906;2022-12-08T06:13:54;4.00;99.90
14893;DHT22;7538;53.626;9.906;2022-12-08T06:16:22;4.00;99.90
14893;DHT22;7538;53.626;9.906;2022-12-08T06:18:49;4.00;99.90
14893;DHT22;7538;53.626;9.906;2022-12-08T06:21:16;4.00;99.90
14893;DHT22;7538;53.626;9.906;2022-12-08T06:23:46;4.00;99.90
14893;DHT22;7538;53.626;9.906;2022-12-08T06:26:14;4.00;99.90
14893;DHT22;7538;53.626;9.906;2022-12-08T06:28:41;4.10;99.90
14893;DHT22;7538;53.626;9.906;2022-12-08T06:31:12;4.10;99.90
14893;DHT22;7538;53.626;9.906;2022-12-08T06:33:40;4.10;99.90
14893;DHT22;7538;53.626;9.906;2022-12-08T06:36:07;4.10;99.90
14893;DHT22;7538;53.626;9.906;2022-12-08T06:38:34;4.10;99.90
14893;DHT22;7538;53.626;9.906;2022-12-08T06:41:01;4.10;99.90
14893;DHT22;7538;53.626;9.906;2022-12-08T06:43:27;4.20;99.90
14893;DHT22;7538;53.626;9.906;2022-12-08T06:45:54;6.10;99.90
14893;DHT22;7538;53.626;9.906;2022-12-08T06:48:23;4.10;99.90
14893;DHT22;7538;53.626;9.906;2022-12-08T06:50:50;4.20;99.90
14893;DHT22;7538;53.626;9.906;2022-12-08T06:53:17;4.10;99.90
14893;DHT22;7538;53.626;9.906;2022-12-08T06:55:45;4.20;99.90
14893;DHT22;7538;53.626;9.906;2022-12-08T06:58:13;4.20;99.90
14893;DHT22;7538;53.626;9.906;2022-12-08T07:00:40;4.20;99.90
14893;DHT22;7538;53.626;9.906;2022-12-08T07:03:09;4.20;99.90
14893;DHT22;7538;53.626;9.906;2022-12-08T07:05:37;4.20;99.90
14893;DHT22;7538;53.626;9.906;2022-12-08T07:08:06;4.20;99.90
14893;DHT22;7538;53.626;9.906;2022-12-08T07:10:33;4.20;99.90
14893;DHT22;7538;53.626;9.906;2022-12-08T07:13:01;4.20;99.90
14893;DHT22;7538;53.626;9.906;2022-12-08T07:15:28;4.20;99.90
14893;DHT22;7538;53.626;9.906;2022-12-08T07:17:54;4.20;99.90
14893;DHT22;7538;53.626;9.906;2022-12-08T07:20:21;4.20;99.90
14893;DHT22;7538;53.626;9.906;2022-12-08T07:22:50;4.20;99.90
14893;DHT22;7538;53.626;9.906;2022-12-08T07:25:17;4.20;99.90
14893;DHT22;7538;53.626;9.906;2022-12-08T07:27:44;4.20;99.90
14893;DHT22;7538;53.626;9.906;2022-12-08T07:30:12;4.20;99.90
14893;DHT22;7538;53.626;9.906;2022-12-08T07:32:39;4.20;99.90
14893;DHT22;7538;53.626;9.906;2022-12-08T07:35:09;4.20;99.90
14893;DHT22;7538;53.626;9.906;2022-12-08T07:37:37;4.20;99.90
14893;DHT22;7538;53.626;9.906;2022-12-08T07:40:07;4.20;99.90
14893;DHT22;7538;53.626;9.906;2022-12-08T07:42:34;4.20;99.90
14893;DHT22;7538;53.626;9.906;2022-12-08T07:45:01;4.20;99.90
14893;DHT22;7538;53.626;9.906;2022-12-08T07:47:27;4.30;99.90
14893;DHT22;7538;53.626;9.906;2022-12-08T07:49:54;4.20;99.90
14893;DHT22;7538;53.626;9.906;2022-12-08T07:52:21;3.10;99.90
14893;DHT22;7538;53.626;9.906;2022-12-08T07:54:48;4.20;99.90
14893;DHT22;7538;53.626;9.906;2022-12-08T07:57:16;4.30;99.90
14893;DHT22;7538;53.626;9.906;2022-12-08T07:59:43;4.30;99.90
14893;DHT22;7538;53.626;9.906;2022-12-08T08:02:16;4.30;99.90
14893;DHT22;7538;53.626;9.906;2022-12-08T08:04:43;4.30;99.90
14893;DHT22;7538;53.626;9.906;2022-12-08T08:07:10;4.30;99.90
14893;DHT22;7538;53.626;9.906;2022-12-08T08:09:37;4.30;99.90
14893;DHT22;7538;53.626;9.906;2022-12-08T08:12:04;4.30;99.90
14893;DHT22;7538;53.626;9.906;2022-12-08T08:14:33;4.30;99.90
14893;DHT22;7538;53.626;9.906;2022-12-08T08:17:00;4.40;99.90
14893;DHT22;7538;53.626;9.906;2022-12-08T08:19:27;4.40;99.90
14893;DHT22;7538;53.626;9.906;2022-12-08T08:21:53;4.40;99.90
14893;DHT22;7538;53.626;9.906;2022-12-08T08:24:20;4.50;99.90
14893;DHT22;7538;53.626;9.906;2022-12-08T08:26:49;4.40;99.90
14893;DHT22;7538;53.626;9.906;2022-12-08T08:29:18;4.40;99.90
14893;DHT22;7538;53.626;9.906;2022-12-08T08:31:46;4.40;99.90
14893;DHT22;7538;53.626;9.906;2022-12-08T08:34:12;4.40;99.90
14893;DHT22;7538;53.626;9.906;2022-12-08T08:36:39;4.50;99.90
14893;DHT22;7538;53.626;9.906;2022-12-08T08:39:06;4.50;99.90
14893;DHT22;7538;53.626;9.906;2022-12-08T08:41:33;4.50;99.90
14893;DHT22;7538;53.626;9.906;2022-12-08T08:44:01;4.50;99.90
14893;DHT22;7538;53.626;9.906;2022-12-08T08:46:27;4.50;99.90
14893;DHT22;7538;53.626;9.906;2022-12-08T08:48:56;4.50;99.90
14893;DHT22;7538;53.626;9.906;2022-12-08T08:51:23;4.50;99.90
14893;DHT22;7538;53.626;9.906;2022-12-08T08:53:50;4.40;99.90
14893;DHT22;7538;53.626;9.906;2022-12-08T08:56:18;4.40;99.90
14893;DHT22;7538;53.626;9.906;2022-12-08T08:58:46;4.40;99.90
14893;DHT22;7538;53.626;9.906;2022-12-08T09:01:15;4.30;99.90
14893;DHT22;7538;53.626;9.906;2022-12-08T09:03:42;4.30;99.90
14893;DHT22;7538;53.626;9.906;2022-12-08T09:06:11;4.30;99.90
14893;DHT22;7538;53.626;9.906;2022-12-08T09:08:38;4.20;99.90
14893;DHT22;7538;53.626;9.906;2022-12-08T09:11:05;4.20;99.90
14893;DHT22;7538;53.626;9.906;2022-12-08T09:13:32;4.30;99.90
14893;DHT22;7538;53.626;9.906;2022-12-08T09:15:59;4.10;99.90
14893;DHT22;7538;53.626;9.906;2022-12-08T09:18:27;4.10;99.90
14893;DHT22;7538;53.626;9.906;2022-12-08T09:20:54;4.10;99.90
14893;DHT22;7538;53.626;9.906;2022-12-08T09:23:22;4.00;99.90
14893;DHT22;7538;53.626;9.906;2022-12-08T09:25:49;4.00;99.90
14893;DHT22;7538;53.626;9.906;2022-12-08T09:28:16;4.00;99.90
14893;DHT22;7538;53.626;9.906;2022-12-08T09:30:42;4.00;99.90
14893;DHT22;7538;53.626;9.906;2022-12-08T09:33:09;4.00;99.90
14893;DHT22;7538;53.626;9.906;2022-12-08T09:35:36;3.90;99.90
14893;DHT22;7538;53.626;9.906;2022-12-08T09:38:03;4.00;99.90
14893;DHT22;7538;53.626;9.906;2022-12-08T09:40:41;3.90;99.90
14893;DHT22;7538;53.626;9.906;2022-12-08T09:43:21;4.10;99.90
14893;DHT22;7538;53.626;9.906;2022-12-08T09:45:50;4.00;99.90
14893;DHT22;7538;53.626;9.906;2022-12-08T09:48:20;4.10;99.90
14893;DHT22;7538;53.626;9.906;2022-12-08T09:50:51;4.10;99.90
14893;DHT22;7538;53.626;9.906;2022-12-08T09:53:22;4.10;99.90
14893;DHT22;7538;53.626;9.906;2022-12-08T09:55:54;4.20;99.90
14893;DHT22;7538;53.626;9.906;2022-12-08T09:58:28;4.20;99.90
14893;DHT22;7538;53.626;9.906;2022-12-08T10:00:57;4.20;99.90
14893;DHT22;7538;53.626;9.906;2022-12-08T10:03:26;4.20;99.90
14893;DHT22;7538;53.626;9.906;2022-12-08T10:05:58;4.20;99.90
14893;DHT22;7538;53.626;9.906;2022-12-08T10:08:32;4.20;99.90
14893;DHT22;7538;53.626;9.906;2022-12-08T10:11:10;4.20;99.90
14893;DHT22;7538;53.626;9.906;2022-12-08T10:13:42;4.20;99.90
14893;DHT22;7538;53.626;9.906;2022-12-08T10:16:20;4.20;99.90
14893;DHT22;7538;53.626;9.906;2022-12-08T10:18:51;4.20;99.90
14893;DHT22;7538;53.626;9.906;2022-12-08T10:21:23;4.20;99.90
14893;DHT22;7538;53.626;9.906;2022-12-08T10:23:53;4.30;99.90
14893;DHT22;7538;53.626;9.906;2022-12-08T10:26:24;4.40;99.90
14893;DHT22;7538;53.626;9.906;2022-12-08T10:28:51;4.40;99.90
14893;DHT22;7538;53.626;9.906;2022-12-08T10:31:19;4.40;99.90
14893;DHT22;7538;53.626;9.906;2022-12-08T10:33:48;4.50;99.90
14893;DHT22;7538;53.626;9.906;2022-12-08T10:36:17;4.40;99.90
14893;DHT22;7538;53.626;9.906;2022-12-08T10:38:44;4.50;99.90
14893;DHT22;7538;53.626;9.906;2022-12-08T10:41:13;4.50;99.90
14893;DHT22;7538;53.626;9.906;2022-12-08T10:43:47;4.60;99.90
14893;DHT22;7538;53.626;9.906;2022-12-08T10:46:17;4.70;99.90
14893;DHT22;7538;53.626;9.906;2022-12-08T10:48:52;4.80;99.90
14893;DHT22;7538;53.626;9.906;2022-12-08T10:51:28;4.90;99.90
14893;DHT22;7538;53.626;9.906;2022-12-08T10:53:55;5.00;99.90
14893;DHT22;7538;53.626;9.906;2022-12-08T10:56:25;5.00;99.90
14893;DHT22;7538;53.626;9.906;2022-12-08T10:59:10;5.00;99.90
14893;DHT22;7538;53.626;9.906;2022-12-08T11:01:39;5.00;99.90
14893;DHT22;7538;53.626;9.906;2022-12-08T11:04:12;5.00;99.90
14893;DHT22;7538;53.626;9.906;2022-12-08T11:06:40;5.00;99.90
14893;DHT22;7538;53.626;9.906;2022-12-08T11:09:35;5.00;99.90
14893;DHT22;7538;53.626;9.906;2022-12-08T11:12:07;4.90;99.90
14893;DHT22;7538;53.626;9.906;2022-12-08T11:14:46;4.90;99.90
14893;DHT22;7538;53.626;9.906;2022-12-08T11:17:15;1.70;99.90
14893;DHT22;7538;53.626;9.906;2022-12-08T11:19:44;5.00;99.90
14893;DHT22;7538;53.626;9.906;2022-12-08T11:22:20;5.00;99.90
14893;DHT22;7538;53.626;9.906;2022-12-08T11:24:56;5.00;99.90
14893;DHT22;7538;53.626;9.906;2022-12-08T11:27:24;5.00;99.90
14893;DHT22;7538;53.626;9.906;2022-12-08T11:29:52;5.00;99.90
14893;DHT22;7538;53.626;9.906;2022-12-08T11:32:19;5.00;99.90
14893;DHT22;7538;53.626;9.906;2022-12-08T11:34:49;5.10;99.90
14893;DHT22;7538;53.626;9.906;2022-12-08T11:37:22;5.10;99.90
14893;DHT22;7538;53.626;9.906;2022-12-08T11:39:53;5.20;99.90
14893;DHT22;7538;53.626;9.906;2022-12-08T11:42:25;5.20;99.90
14893;DHT22;7538;53.626;9.906;2022-12-08T11:44:58;5.20;99.90
14893;DHT22;7538;53.626;9.906;2022-12-08T11:47:29;5.20;99.90
14893;DHT22;7538;53.626;9.906;2022-12-08T11:50:01;5.10;99.90
14893;DHT22;7538;53.626;9.906;2022-12-08T11:52:32;5.20;99.90
14893;DHT22;7538;53.626;9.906;2022-12-08T11:55:07;5.20;99.90
14893;DHT22;7538;53.626;9.906;2022-12-08T11:57:42;5.20;99.90
14893;DHT22;7538;53.626;9.906;2022-12-08T12:00:15;5.20;99.90
14893;DHT22;7538;53.626;9.906;2022-12-08T12:02:45;5.30;99.90
14893;DHT22;7538;53.626;9.906;2022-12-08T12:05:25;5.30;99.90
14893;DHT22;7538;53.626;9.906;2022-12-08T12:08:03;5.40;99.90
14893;DHT22;7538;53.626;9.906;2022-12-08T12:10:44;5.30;99.90
14893;DHT22;7538;53.626;9.906;2022-12-08T12:13:28;5.30;99.90
14893;DHT22;7538;53.626;9.906;2022-12-08T12:16:39;5.20;99.90
14893;DHT22;7538;53.626;9.906;2022-12-08T12:19:12;5.20;99.90
14893;DHT22;7538;53.626;9.906;2022-12-08T12:21:42;5.20;99.90
14893;DHT22;7538;53.626;9.906;2022-12-08T12:24:16;5.10;99.90
14893;DHT22;7538;53.626;9.906;2022-12-08T12:26:54;5.10;99.90
14893;DHT22;7538;53.626;9.906;2022-12-08T12:29:24;5.10;99.90
14893;DHT22;7538;53.626;9.906;2022-12-08T12:31:55;8.30;99.90
14893;DHT22;7538;53.626;9.906;2022-12-08T12:34:25;5.00;99.90
14893;DHT22;7538;53.626;9.906;2022-12-08T12:36:55;5.00;99.90
14893;DHT22;7538;53.626;9.906;2022-12-08T12:39:25;5.00;99.90
14893;DHT22;7538;53.626;9.906;2022-12-08T12:41:55;5.00;99.90
14893;DHT22;7538;53.626;9.906;2022-12-08T12:47:13;5.00;99.90
14893;DHT22;7538;53.626;9.906;2022-12-08T12:49:51;5.00;99.90
14893;DHT22;7538;53.626;9.906;2022-12-08T12:52:45;5.00;99.90
14893;DHT22;7538;53.626;9.906;2022-12-08T12:58:47;5.10;99.90
14893;DHT22;7538;53.626;9.906;2022-12-08T13:04:30;5.10;99.90
14893;DHT22;7538;53.626;9.906;2022-12-08T13:06:58;5.20;99.90
14893;DHT22;7538;53.626;9.906;2022-12-08T13:09:31;5.20;99.90
14893;DHT22;7538;53.626;9.906;2022-12-08T13:12:00;5.10;99.90
14893;DHT22;7538;53.626;9.906;2022-12-08T13:14:35;5.20;99.90
14893;DHT22;7538;53.626;9.906;2022-12-08T13:17:06;5.10;99.90
14893;DHT22;7538;53.626;9.906;2022-12-08T13:19:38;5.20;99.90
14893;DHT22;7538;53.626;9.906;2022-12-08T13:25:43;5.10;99.90
14893;DHT22;7538;53.626;9.906;2022-12-08T13:28:20;5.10;99.90
14893;DHT22;7538;53.626;9.906;2022-12-08T13:30:47;5.00;99.90
14893;DHT22;7538;53.626;9.906;2022-12-08T13:33:18;5.00;99.90
14893;DHT22;7538;53.626;9.906;2022-12-08T13:35:52;4.90;99.90
14893;DHT22;7538;53.626;9.906;2022-12-08T13:38:21;4.80;99.90
14893;DHT22;7538;53.626;9.906;2022-12-08T13:40:53;4.70;99.90
14893;DHT22;7538;53.626;9.906;2022-12-08T13:43:28;4.70;99.90
14893;DHT22;7538;53.626;9.906;2022-12-08T13:45:58;4.60;99.90
14893;DHT22;7538;53.626;9.906;2022-12-08T13:48:29;4.60;99.90
14893;DHT22;7538;53.626;9.906;2022-12-08T13:51:08;4.60;99.90
14893;DHT22;7538;53.626;9.906;2022-12-08T13:53:38;4.70;99.90
14893;DHT22;7538;53.626;9.906;2022-12-08T13:56:06;4.60;99.90
14893;DHT22;7538;53.626;9.906;2022-12-08T13:58:37;4.60;99.90
14893;DHT22;7538;53.626;9.906;2022-12-08T14:01:06;4.60;99.90
14893;DHT22;7538;53.626;9.906;2022-12-08T14:03:44;4.70;99.90
14893;DHT22;7538;53.626;9.906;2022-12-08T14:06:14;4.60;99.90
14893;DHT22;7538;53.626;9.906;2022-12-08T14:08:42;4.70;99.90
14893;DHT22;7538;53.626;9.906;2022-12-08T14:11:26;4.70;99.90
14893;DHT22;7538;53.626;9.906;2022-12-08T14:14:01;4.70;99.90
14893;DHT22;7538;53.626;9.906;2022-12-08T14:16:33;4.70;99.90
14893;DHT22;7538;53.626;9.906;2022-12-08T14:19:06;4.80;99.90
14893;DHT22;7538;53.626;9.906;2022-12-08T14:21:44;4.70;99.90
14893;DHT22;7538;53.626;9.906;2022-12-08T14:24:11;4.70;99.90
14893;DHT22;7538;53.626;9.906;2022-12-08T14:26:38;3.30;99.90
14893;DHT22;7538;53.626;9.906;2022-12-08T14:29:07;4.60;99.90
14893;DHT22;7538;53.626;9.906;2022-12-08T14:31:34;4.60;99.90
14893;DHT22;7538;53.626;9.906;2022-12-08T14:34:01;4.50;99.90
14893;DHT22;7538;53.626;9.906;2022-12-08T14:36:28;4.50;99.90
14893;DHT22;7538;53.626;9.906;2022-12-08T14:38:59;4.40;99.90
14893;DHT22;7538;53.626;9.906;2022-12-08T14:41:27;4.40;99.90
14893;DHT22;7538;53.626;9.906;2022-12-08T14:43:59;4.30;99.90
14893;DHT22;7538;53.626;9.906;2022-12-08T14:46:27;4.30;99.90
14893;DHT22;7538;53.626;9.906;2022-12-08T14:48:54;4.20;99.90
14893;DHT22;7538;53.626;9.906;2022-12-08T14:51:25;4.10;99.90
14893;DHT22;7538;53.626;9.906;2022-12-08T14:53:55;4.00;99.90
14893;DHT22;7538;53.626;9.906;2022-12-08T14:56:30;3.90;99.90
14893;DHT22;7538;53.626;9.906;2022-12-08T14:59:04;3.80;99.90
14893;DHT22;7538;53.626;9.906;2022-12-08T15:01:32;3.70;99.90
14893;DHT22;7538;53.626;9.906;2022-12-08T15:04:02;3.60;99.90
14893;DHT22;7538;53.626;9.906;2022-12-08T15:06:33;3.60;99.90
14893;DHT22;7538;53.626;9.906;2022-12-08T15:09:14;3.50;99.90
14893;DHT22;7538;53.626;9.906;2022-12-08T15:11:42;3.40;99.90
14893;DHT22;7538;53.626;9.906;2022-12-08T15:14:30;3.40;99.90
14893;DHT22;7538;53.626;9.906;2022-12-08T15:16:58;3.40;99.90
14893;DHT22;7538;53.626;9.906;2022-12-08T15:19:27;3.40;99.90
14893;DHT22;7538;53.626;9.906;2022-12-08T15:21:57;3.40;99.90
14893;DHT22;7538;53.626;9.906;2022-12-08T15:24:26;3.40;99.90
14893;DHT22;7538;53.626;9.906;2022-12-08T15:26:55;3.40;99.90
14893;DHT22;7538;53.626;9.906;2022-12-08T15:29:25;3.40;99.90
14893;DHT22;7538;53.626;9.906;2022-12-08T15:31:54;3.40;99.90
14893;DHT22;7538;53.626;9.906;2022-12-08T15:34:21;3.40;99.90
14893;DHT22;7538;53.626;9.906;2022-12-08T15:36:49;3.40;99.90
14893;DHT22;7538;53.626;9.906;2022-12-08T15:39:31;3.50;99.90
14893;DHT22;7538;53.626;9.906;2022-12-08T15:42:01;3.50;99.90
14893;DHT22;7538;53.626;9.906;2022-12-08T15:44:28;3.50;99.90
14893;DHT22;7538;53.626;9.906;2022-12-08T15:46:57;3.60;99.90
14893;DHT22;7538;53.626;9.906;2022-12-08T15:49:24;3.60;99.90
14893;DHT22;7538;53.626;9.906;2022-12-08T15:51:52;3.70;99.90
14893;DHT22;7538;53.626;9.906;2022-12-08T15:54:19;3.70;99.90
14893;DHT22;7538;53.626;9.906;2022-12-08T15:56:49;3.70;99.90
14893;DHT22;7538;53.626;9.906;2022-12-08T15:59:21;3.70;99.90
14893;DHT22;7538;53.626;9.906;2022-12-08T16:01:48;3.80;99.90
14893;DHT22;7538;53.626;9.906;2022-12-08T16:04:16;3.80;99.90
14893;DHT22;7538;53.626;9.906;2022-12-08T16:06:45;3.80;99.90
14893;DHT22;7538;53.626;9.906;2022-12-08T16:09:17;3.90;99.90
14893;DHT22;7538;53.626;9.906;2022-12-08T16:11:45;3.80;99.90
14893;DHT22;7538;53.626;9.906;2022-12-08T16:14:31;3.90;99.90
14893;DHT22;7538;53.626;9.906;2022-12-08T16:16:58;3.90;99.90
14893;DHT22;7538;53.626;9.906;2022-12-08T16:19:25;3.90;99.90
14893;DHT22;7538;53.626;9.906;2022-12-08T16:21:53;3.90;99.90
14893;DHT22;7538;53.626;9.906;2022-12-08T16:24:21;3.90;99.90
14893;DHT22;7538;53.626;9.906;2022-12-08T16:26:48;4.00;99.90
14893;DHT22;7538;53.626;9.906;2022-12-08T16:29:18;4.00;99.90
14893;DHT22;7538;53.626;9.906;2022-12-08T16:31:46;4.00;99.90
14893;DHT22;7538;53.626;9.906;2022-12-08T16:34:13;4.00;99.90
14893;DHT22;7538;53.626;9.906;2022-12-08T16:36:40;4.00;99.90
14893;DHT22;7538;53.626;9.906;2022-12-08T16:39:09;4.00;99.90